Time;durP1;ratioP1;P1;durP2;ratioP2;P2;SDS_P1;SDS_P2;PMS_P1;PMS_P2;Temp;Humidity;BMP_temperature;BMP_pressure;BME280_temperature;BME280_humidity;BME280_pressure;Samples;Min_cycle;Max_cycle;Signal;HPM_P1;HPM_P2
2021/11/11 00:00:16;;;;;;;8.70;1.23;;;29.10;32.50;;;;;;5071102;28;20191;-60
2021/11/11 00:02:43;;;;;;;7.45;1.20;;;29.00;32.50;;;;;;5072399;28;20175;-60
2021/11/11 00:05:10;;;;;;;6.53;1.20;;;28.90;32.70;;;;;;5054336;28;20258;-60
2021/11/11 00:07:38;;;;;;;8.48;1.67;;;28.80;32.90;;;;;;5039830;28;20157;-61
2021/11/11 00:10:09;;;;;;;28.48;3.38;;;28.80;33.30;;;;;;5053642;28;20104;-60
2021/11/11 00:12:36;;;;;;;8.95;1.48;;;28.80;33.30;;;;;;5051509;28;20074;-63
2021/11/11 00:15:08;;;;;;;7.55;1.70;;;28.70;33.10;;;;;;5053268;28;20080;-58
2021/11/11 00:17:35;;;;;;;8.82;1.10;;;28.60;33.50;;;;;;5037563;28;20092;-60
2021/11/11 00:20:02;;;;;;;8.73;1.50;;;28.50;33.10;;;;;;5056887;28;20527;-61
2021/11/11 00:22:29;;;;;;;10.73;1.73;;;28.50;33.40;;;;;;5070373;28;20547;-59
2021/11/11 00:24:55;;;;;;;11.20;1.50;;;28.40;33.30;;;;;;5071718;28;20093;-63
2021/11/11 00:27:22;;;;;;;12.77;1.77;;;28.30;33.30;;;;;;5051735;28;20152;-60
2021/11/11 00:29:48;;;;;;;11.02;2.00;;;28.30;33.40;;;;;;5053821;28;20076;-60
2021/11/11 00:32:15;;;;;;;6.38;2.67;;;28.20;33.40;;;;;;5051008;28;20081;-63
2021/11/11 00:34:44;;;;;;;6.60;3.10;;;28.10;33.30;;;;;;5051392;28;20165;-59
2021/11/11 00:37:10;;;;;;;11.70;4.55;;;28.00;33.50;;;;;;5060114;28;20085;-56
2021/11/11 00:39:37;;;;;;;11.20;5.57;;;27.90;33.50;;;;;;5050840;28;20080;-60
2021/11/11 00:42:04;;;;;;;20.85;6.78;;;27.80;34.20;;;;;;5071453;28;20077;-62
2021/11/11 00:44:30;;;;;;;16.15;7.70;;;27.80;33.80;;;;;;5070045;28;20081;-63
2021/11/11 00:46:57;;;;;;;21.17;9.77;;;27.70;34.30;;;;;;5070557;28;20116;-59
2021/11/11 00:49:23;;;;;;;20.92;9.98;;;27.60;34.60;;;;;;5069663;28;20077;-62
2021/11/11 00:51:50;;;;;;;21.27;9.90;;;27.50;34.80;;;;;;5053165;28;20183;-58
2021/11/11 00:54:16;;;;;;;26.25;10.07;;;27.40;35.40;;;;;;5068967;28;20503;-58
2021/11/11 00:56:43;;;;;;;24.02;9.48;;;27.30;35.70;;;;;;5049994;28;20078;-59
2021/11/11 00:59:11;;;;;;;24.10;9.57;;;27.20;35.80;;;;;;5053809;28;20164;-60
2021/11/11 01:01:37;;;;;;;23.38;9.73;;;27.10;36.80;;;;;;5081578;28;20562;-60
2021/11/11 01:04:04;;;;;;;22.73;10.50;;;26.90;36.30;;;;;;5046095;28;20085;-59
2021/11/11 01:06:30;;;;;;;30.67;11.77;;;26.80;36.90;;;;;;5065631;28;20073;-58
2021/11/11 01:08:57;;;;;;;48.75;13.80;;;26.70;37.30;;;;;;5073411;28;20438;-61
2021/11/11 01:11:25;;;;;;;48.95;13.55;;;26.60;37.50;;;;;;5081197;28;20502;-60
2021/11/11 01:13:52;;;;;;;55.13;14.57;;;26.60;38.30;;;;;;5053486;28;20525;-60
2021/11/11 01:16:20;;;;;;;44.25;12.93;;;26.50;38.40;;;;;;5070849;28;20077;-58
2021/11/11 01:18:46;;;;;;;27.95;11.43;;;26.30;38.40;;;;;;5085210;28;20073;-63
2021/11/11 01:21:13;;;;;;;49.97;11.10;;;26.20;38.70;;;;;;5072857;28;20079;-59
2021/11/11 01:23:40;;;;;;;35.80;10.02;;;26.10;39.80;;;;;;5089532;28;20068;-62
2021/11/11 01:26:07;;;;;;;28.90;9.70;;;26.00;39.60;;;;;;5072275;28;21057;-64
2021/11/11 01:28:35;;;;;;;36.55;9.43;;;25.90;39.70;;;;;;5090587;28;20072;-61
2021/11/11 01:31:02;;;;;;;26.65;8.57;;;25.70;39.80;;;;;;5055948;28;20079;-60
2021/11/11 01:33:28;;;;;;;41.40;9.70;;;25.60;39.90;;;;;;5073234;28;20083;-60
2021/11/11 01:35:55;;;;;;;36.05;8.90;;;25.50;40.50;;;;;;5055850;28;20088;-62
2021/11/11 01:38:21;;;;;;;33.88;9.18;;;25.40;41.10;;;;;;5036699;28;20080;-58
2021/11/11 01:40:48;;;;;;;34.90;8.05;;;25.40;41.90;;;;;;5052760;28;20163;-60
2021/11/11 01:43:14;;;;;;;38.83;8.80;;;25.30;42.30;;;;;;5063322;28;20095;-60
2021/11/11 01:45:42;;;;;;;44.67;10.25;;;25.30;42.30;;;;;;5046365;28;20093;-60
2021/11/11 01:48:12;;;;;;;34.78;10.10;;;25.20;42.80;;;;;;5035296;28;20093;-58
2021/11/11 01:50:39;;;;;;;32.38;9.15;;;25.10;43.00;;;;;;5049487;28;20446;-60
2021/11/11 01:53:09;;;;;;;40.33;8.50;;;25.00;43.30;;;;;;5064078;28;20534;-59
2021/11/11 01:55:37;;;;;;;44.17;8.88;;;24.90;43.50;;;;;;5055461;28;20199;-59
2021/11/11 01:58:04;;;;;;;32.92;7.82;;;24.80;43.80;;;;;;5071308;28;20171;-63
2021/11/11 02:00:38;;;;;;;34.35;8.10;;;24.70;44.10;;;;;;5090356;28;20522;-61
2021/11/11 02:03:06;;;;;;;35.65;7.72;;;24.60;44.10;;;;;;5060281;28;20123;-63
2021/11/11 02:05:35;;;;;;;23.35;8.40;;;24.60;44.40;;;;;;5054182;28;20092;-59
2021/11/11 02:08:03;;;;;;;43.65;8.68;;;24.50;44.40;;;;;;5046956;28;20107;-60
2021/11/11 02:10:30;;;;;;;49.35;9.23;;;24.50;44.50;;;;;;5052002;28;20519;-63
2021/11/11 02:12:57;;;;;;;45.47;9.32;;;24.40;44.30;;;;;;5089707;28;20080;-62
2021/11/11 02:15:24;;;;;;;57.88;9.75;;;24.30;44.50;;;;;;5071283;28;20658;-59
2021/11/11 02:17:50;;;;;;;46.70;9.52;;;24.30;44.40;;;;;;5066104;28;20069;-60
2021/11/11 02:20:28;;;;;;;43.08;9.98;;;24.20;44.70;;;;;;5054737;28;20141;-63
2021/11/11 02:22:56;;;;;;;45.90;10.30;;;24.20;44.90;;;;;;5059171;28;20072;-62
2021/11/11 02:25:25;;;;;;;54.45;10.80;;;24.10;44.70;;;;;;5055208;28;20204;-59
2021/11/11 02:27:55;;;;;;;51.30;11.40;;;24.10;45.10;;;;;;5071751;28;20089;-61
2021/11/11 02:30:23;;;;;;;54.22;12.80;;;24.10;45.40;;;;;;5054897;28;20515;-63
2021/11/11 02:32:50;;;;;;;57.45;11.68;;;24.00;45.50;;;;;;5071550;28;20088;-60
2021/11/11 02:35:17;;;;;;;80.05;13.07;;;24.00;45.50;;;;;;5071865;28;20077;-61
2021/11/11 02:37:45;;;;;;;68.80;13.23;;;23.90;45.80;;;;;;5057575;28;20081;-61
2021/11/11 02:40:17;;;;;;;69.25;14.77;;;23.90;46.10;;;;;;5051980;28;20084;-59
2021/11/11 02:42:46;;;;;;;76.10;14.38;;;23.80;45.80;;;;;;5038297;28;20101;-62
2021/11/11 02:45:16;;;;;;;61.63;13.73;;;23.80;46.00;;;;;;5055010;28;20093;-62
2021/11/11 02:47:44;;;;;;;71.93;16.27;;;23.70;46.00;;;;;;5055238;28;20464;-61
2021/11/11 02:50:11;;;;;;;82.07;17.52;;;23.70;46.50;;;;;;5055247;28;20092;-61
2021/11/11 02:52:38;;;;;;;92.55;17.52;;;23.60;46.60;;;;;;5054360;28;20237;-61
2021/11/11 02:55:07;;;;;;;84.57;17.60;;;23.60;46.60;;;;;;5071425;28;20125;-63
2021/11/11 02:57:37;;;;;;;98.63;19.45;;;23.50;46.90;;;;;;5054549;28;20096;-64
2021/11/11 03:00:14;;;;;;;94.43;19.58;;;23.50;47.00;;;;;;5071734;28;20669;-62
2021/11/11 03:02:44;;;;;;;98.18;21.40;;;23.40;47.10;;;;;;5051933;28;20104;-62
2021/11/11 03:05:31;;;;;;;117.07;22.17;;;23.40;47.20;;;;;;5070945;28;20097;-61
2021/11/11 03:07:57;;;;;;;;;;;23.40;47.00;;;;;;5072107;28;20157;-59
2021/11/11 03:10:27;;;;;;;127.38;25.75;;;23.40;46.60;;;;;;5054828;28;20525;-63
2021/11/11 03:12:55;;;;;;;113.03;25.88;;;23.30;46.80;;;;;;5048513;28;20092;-61
2021/11/11 03:15:24;;;;;;;110.68;27.27;;;23.30;46.70;;;;;;5040434;28;20152;-62
2021/11/11 03:17:51;;;;;;;116.47;27.65;;;23.30;46.90;;;;;;5069559;28;20088;-60
2021/11/11 03:20:19;;;;;;;143.90;30.00;;;23.30;46.90;;;;;;5075338;28;20580;-61
2021/11/11 03:22:46;;;;;;;145.93;31.83;;;23.30;47.40;;;;;;5075473;28;20092;-60
2021/11/11 03:25:18;;;;;;;122.57;32.25;;;23.30;47.70;;;;;;5092186;28;20553;-60
2021/11/11 03:27:45;;;;;;;141.25;31.13;;;23.10;47.30;;;;;;5056253;28;20073;-59
2021/11/11 03:30:14;;;;;;;137.73;31.73;;;23.10;47.30;;;;;;5074397;28;20115;-58
2021/11/11 03:32:41;;;;;;;131.10;30.20;;;23.00;47.50;;;;;;5072865;28;20076;-59
2021/11/11 03:35:09;;;;;;;140.20;32.58;;;23.00;47.40;;;;;;5066226;28;20079;-59
2021/11/11 03:37:36;;;;;;;153.90;34.17;;;23.10;48.00;;;;;;5048180;28;20133;-60
2021/11/11 03:40:07;;;;;;;178.35;33.47;;;23.10;47.70;;;;;;5058737;28;20076;-59
2021/11/11 03:42:34;;;;;;;176.70;34.25;;;23.00;47.30;;;;;;5062155;28;20520;-59
2021/11/11 03:45:00;;;;;;;185.50;33.97;;;22.90;47.60;;;;;;5040453;28;20097;-60
2021/11/11 03:47:27;;;;;;;154.15;32.85;;;22.90;47.80;;;;;;5058637;28;20112;-57
2021/11/11 03:49:53;;;;;;;122.82;31.05;;;22.90;47.60;;;;;;5071397;28;20121;-58
2021/11/11 03:52:20;;;;;;;168.13;31.48;;;22.90;48.00;;;;;;5055983;28;20081;-59
2021/11/11 03:54:46;;;;;;;163.45;29.98;;;22.90;47.50;;;;;;5044895;28;20115;-58
2021/11/11 03:57:12;;;;;;;133.88;27.05;;;22.80;47.60;;;;;;5083098;28;20077;-58
2021/11/11 03:59:39;;;;;;;150.45;28.17;;;22.80;47.50;;;;;;5080848;28;20481;-60
2021/11/11 04:02:06;;;;;;;141.05;29.77;;;22.80;47.70;;;;;;5065832;28;20084;-63
2021/11/11 04:04:34;;;;;;;124.63;28.08;;;22.70;47.40;;;;;;5049222;28;20097;-59
2021/11/11 04:07:00;;;;;;;138.02;26.02;;;22.70;47.50;;;;;;5074105;28;20072;-59
2021/11/11 04:09:27;;;;;;;122.80;26.25;;;22.70;47.30;;;;;;5059548;28;20092;-61
2021/11/11 04:11:54;;;;;;;110.85;24.70;;;22.70;47.50;;;;;;5057350;28;20073;-59
2021/11/11 04:14:20;;;;;;;133.40;26.77;;;22.70;47.30;;;;;;5074310;28;20080;-58
2021/11/11 04:16:47;;;;;;;132.95;25.90;;;22.70;47.30;;;;;;5069766;28;20096;-61
2021/11/11 04:19:14;;;;;;;116.57;24.88;;;22.70;46.70;;;;;;5074406;28;20080;-59
2021/11/11 04:21:41;;;;;;;99.88;26.35;;;22.70;46.90;;;;;;5054461;28;20549;-58
2021/11/11 04:24:11;;;;;;;97.72;25.92;;;22.70;45.10;;;;;;5092286;28;20167;-59
2021/11/11 04:26:53;;;;;;;110.13;27.67;;;22.70;45.60;;;;;;5078884;28;20085;-60
2021/11/11 04:29:28;;;;;;;126.00;29.65;;;22.80;45.20;;;;;;5054769;28;20164;-59
2021/11/11 04:32:02;;;;;;;119.15;27.75;;;22.80;44.70;;;;;;5070513;28;20441;-59
2021/11/11 04:34:32;;;;;;;121.35;29.85;;;22.80;44.70;;;;;;5062766;28;20073;-59
2021/11/11 04:39:55;;;;;;;122.35;27.90;;;22.80;45.00;;;;;;5064914;28;20543;-61
2021/11/11 04:42:32;;;;;;;113.43;28.40;;;22.70;45.30;;;;;;5050201;28;20073;-59
2021/11/11 05:03:39;;;;;;;85.80;24.25;;;22.60;45.60;;;;;;5090308;28;20088;-58
2021/11/11 05:06:06;;;;;;;80.47;22.63;;;22.50;45.30;;;;;;5073667;28;20095;-59
2021/11/11 05:08:33;;;;;;;68.43;20.85;;;22.50;45.90;;;;;;5046860;28;20439;-59
2021/11/11 05:11:01;;;;;;;54.33;18.35;;;22.40;45.90;;;;;;5049798;28;20099;-60
2021/11/11 05:13:28;;;;;;;73.43;19.35;;;22.40;46.10;;;;;;5053392;28;20078;-57
2021/11/11 05:15:56;;;;;;;53.28;17.58;;;22.30;46.00;;;;;;5071609;28;20073;-58
2021/11/11 05:18:22;;;;;;;52.10;17.38;;;22.30;46.30;;;;;;5072708;28;20092;-59
2021/11/11 05:20:48;;;;;;;66.65;18.45;;;22.30;46.10;;;;;;5072549;28;20068;-62
2021/11/11 05:23:15;;;;;;;64.63;17.92;;;22.30;45.10;;;;;;5072783;28;20077;-61
2021/11/11 05:25:42;;;;;;;56.40;16.38;;;22.30;45.10;;;;;;5085026;28;20116;-59
2021/11/11 05:28:09;;;;;;;64.50;16.55;;;22.20;45.80;;;;;;5053976;28;20160;-56
2021/11/11 05:30:36;;;;;;;58.15;16.77;;;22.20;45.70;;;;;;5071390;28;20065;-59
2021/11/11 05:33:03;;;;;;;78.57;18.23;;;22.20;45.40;;;;;;5072068;28;20091;-62
2021/11/11 05:35:30;;;;;;;65.28;17.00;;;22.10;45.30;;;;;;5072931;28;20138;-62
2021/11/11 05:37:57;;;;;;;70.68;18.45;;;22.10;45.60;;;;;;5056628;28;20083;-59
2021/11/11 05:40:23;;;;;;;51.97;16.98;;;22.10;45.30;;;;;;5072361;28;20179;-57
2021/11/11 05:42:50;;;;;;;66.47;16.13;;;22.00;46.40;;;;;;5090334;28;20118;-60
2021/11/11 05:45:18;;;;;;;77.50;17.60;;;22.00;46.30;;;;;;5090318;28;20104;-60
2021/11/11 05:47:45;;;;;;;62.05;17.95;;;22.00;46.40;;;;;;5055831;28;20610;-60
2021/11/11 05:50:13;;;;;;;57.60;16.92;;;21.90;46.20;;;;;;5071917;28;20500;-59
2021/11/11 05:52:39;;;;;;;72.38;18.67;;;21.90;46.30;;;;;;5055475;28;20581;-62
2021/11/11 05:55:07;;;;;;;64.38;18.02;;;21.90;46.40;;;;;;5072321;28;20088;-60
2021/11/11 05:57:33;;;;;;;95.15;23.17;;;21.80;46.60;;;;;;5072026;28;20083;-62
2021/11/11 06:00:00;;;;;;;92.32;24.45;;;21.80;46.50;;;;;;5053714;28;20117;-59
2021/11/11 06:02:26;;;;;;;114.82;25.60;;;21.80;46.40;;;;;;5055566;28;20534;-57
2021/11/11 06:04:53;;;;;;;91.65;24.73;;;21.80;47.10;;;;;;5090688;28;20101;-58
2021/11/11 06:07:19;;;;;;;98.55;26.40;;;21.80;47.40;;;;;;5070575;28;20096;-60
2021/11/11 06:09:46;;;;;;;99.32;26.45;;;21.70;47.40;;;;;;5071198;28;20100;-57
2021/11/11 06:12:12;;;;;;;100.63;26.83;;;21.60;47.30;;;;;;5055767;28;20146;-58
2021/11/11 06:14:38;;;;;;;103.03;25.40;;;21.60;47.60;;;;;;5071681;28;20480;-60
2021/11/11 06:17:08;;;;;;;96.78;25.00;;;21.60;47.70;;;;;;5072030;28;20088;-60
2021/11/11 06:19:36;;;;;;;91.22;22.65;;;21.50;47.90;;;;;;5071612;28;20073;-60
2021/11/11 06:22:07;;;;;;;100.65;22.67;;;21.50;48.20;;;;;;5072071;28;20155;-61
2021/11/11 06:24:33;;;;;;;98.93;22.05;;;21.50;48.20;;;;;;5071690;28;20106;-58
2021/11/11 06:27:00;;;;;;;86.57;22.25;;;21.50;48.50;;;;;;5069459;28;20064;-61
2021/11/11 06:29:26;;;;;;;66.35;17.77;;;21.50;48.70;;;;;;5072318;28;20079;-61
2021/11/11 06:31:52;;;;;;;62.53;16.10;;;21.30;48.20;;;;;;5054846;28;20117;-64
2021/11/11 06:34:19;;;;;;;68.07;17.02;;;21.20;48.20;;;;;;5055361;28;20159;-60
2021/11/11 06:36:45;;;;;;;67.47;16.88;;;21.20;48.50;;;;;;5084534;28;20077;-62
2021/11/11 06:39:12;;;;;;;58.30;15.48;;;21.20;48.40;;;;;;5037212;28;20164;-63
2021/11/11 06:41:38;;;;;;;58.88;13.82;;;21.10;48.80;;;;;;5071611;28;20515;-60
2021/11/11 06:44:05;;;;;;;59.63;14.13;;;21.10;48.60;;;;;;5056093;28;20470;-57
2021/11/11 06:46:32;;;;;;;57.88;13.88;;;21.10;49.00;;;;;;5076142;28;20080;-60
2021/11/11 06:48:58;;;;;;;44.08;13.07;;;21.20;49.00;;;;;;5075596;28;20103;-59
2021/11/11 06:51:25;;;;;;;44.30;11.77;;;21.20;48.60;;;;;;5093925;28;20084;-60
2021/11/11 06:53:52;;;;;;;40.67;12.45;;;21.10;49.10;;;;;;5042015;28;20076;-59
2021/11/11 06:56:18;;;;;;;43.47;12.35;;;21.10;49.40;;;;;;5056300;28;20072;-60
2021/11/11 06:58:49;;;;;;;39.15;11.90;;;21.00;49.90;;;;;;5093300;28;20590;-62
2021/11/11 07:01:21;;;;;;;48.08;12.38;;;21.00;49.90;;;;;;5041880;28;20112;-62
2021/11/11 07:03:48;;;;;;;48.08;11.48;;;20.90;49.70;;;;;;5059254;28;20095;-61
2021/11/11 07:06:15;;;;;;;43.75;10.63;;;20.90;50.20;;;;;;5076042;28;20085;-60
2021/11/11 07:08:41;;;;;;;43.35;10.52;;;20.80;50.10;;;;;;5082600;28;20069;-61
2021/11/11 07:11:08;;;;;;;41.10;10.05;;;20.70;49.90;;;;;;5069277;28;20145;-61
2021/11/11 07:13:35;;;;;;;30.15;9.80;;;20.70;50.20;;;;;;5075120;28;20527;-57
2021/11/11 07:16:02;;;;;;;44.63;10.70;;;20.70;49.90;;;;;;5075665;28;20072;-61
2021/11/11 07:18:29;;;;;;;46.90;11.60;;;20.70;49.90;;;;;;5093397;28;20179;-59
2021/11/11 07:20:56;;;;;;;49.85;11.82;;;20.60;50.20;;;;;;5075080;28;20150;-61
2021/11/11 07:23:23;;;;;;;40.78;10.98;;;20.60;50.40;;;;;;5058587;28;20159;-60
2021/11/11 07:25:51;;;;;;;42.92;11.75;;;20.60;50.60;;;;;;5063025;28;20088;-60
2021/11/11 07:28:19;;;;;;;47.50;11.10;;;20.50;50.40;;;;;;5074955;28;20080;-60
2021/11/11 07:30:46;;;;;;;41.30;10.70;;;20.50;50.50;;;;;;5074714;28;20079;-62
2021/11/11 07:33:14;;;;;;;49.15;13.75;;;20.50;51.00;;;;;;5093245;28;20560;-60
2021/11/11 07:35:42;;;;;;;45.00;13.65;;;20.50;51.00;;;;;;5072312;28;20119;-61
2021/11/11 07:38:10;;;;;;;42.85;11.88;;;20.50;50.90;;;;;;5047176;28;20501;-59
2021/11/11 07:40:38;;;;;;;40.75;12.63;;;20.50;50.70;;;;;;5083390;28;20084;-62
2021/11/11 07:43:05;;;;;;;36.33;11.07;;;20.50;51.00;;;;;;5064829;28;20077;-61
2021/11/11 07:45:32;;;;;;;34.85;10.70;;;20.40;50.80;;;;;;5048979;28;20539;-59
2021/11/11 07:48:01;;;;;;;33.35;11.13;;;20.50;50.70;;;;;;5063783;28;20079;-61
2021/11/11 07:50:33;;;;;;;37.75;10.75;;;20.40;50.40;;;;;;5063970;28;20886;-58
2021/11/11 07:53:01;;;;;;;26.48;9.32;;;20.40;50.20;;;;;;5056534;28;20077;-59
2021/11/11 07:55:29;;;;;;;22.13;6.75;;;20.40;49.90;;;;;;5081230;28;20084;-62
2021/11/11 07:57:56;;;;;;;13.68;4.88;;;20.40;48.70;;;;;;5068913;28;20105;-59
2021/11/11 08:00:22;;;;;;;14.13;4.03;;;20.40;47.20;;;;;;5065149;28;20127;-57
2021/11/11 08:02:49;;;;;;;11.50;3.10;;;20.40;47.00;;;;;;5083622;28;20077;-61
2021/11/11 08:05:19;;;;;;;12.65;3.45;;;20.40;45.90;;;;;;5062833;28;20187;-60
2021/11/11 08:07:47;;;;;;;18.77;3.25;;;20.40;46.20;;;;;;5048601;28;20080;-62
2021/11/11 08:10:15;;;;;;;9.48;2.78;;;20.40;46.10;;;;;;5052661;28;20566;-62
2021/11/11 08:12:42;;;;;;;15.85;2.97;;;20.40;46.00;;;;;;5047482;28;20084;-58
2021/11/11 08:15:09;;;;;;;12.25;2.55;;;20.50;45.30;;;;;;5071136;28;20087;-62
2021/11/11 08:17:36;;;;;;;6.28;1.90;;;20.40;45.10;;;;;;5046833;28;20193;-61
2021/11/11 08:20:05;;;;;;;10.57;2.08;;;20.50;44.00;;;;;;5065052;28;20124;-60
2021/11/11 08:22:31;;;;;;;8.32;2.10;;;20.50;43.90;;;;;;5062921;28;20576;-61
2021/11/11 08:24:58;;;;;;;11.25;2.20;;;20.50;43.40;;;;;;5063243;28;20115;-60
2021/11/11 08:27:25;;;;;;;7.88;2.33;;;20.50;43.70;;;;;;5064490;28;20427;-57
2021/11/11 08:29:54;;;;;;;12.45;2.08;;;20.50;44.10;;;;;;5062495;28;20416;-59
2021/11/11 08:32:21;;;;;;;9.98;1.80;;;20.50;44.10;;;;;;5063702;28;20083;-59
2021/11/11 08:34:48;;;;;;;5.95;1.77;;;20.50;43.50;;;;;;5065169;28;20102;-59
2021/11/11 08:37:15;;;;;;;7.88;1.98;;;20.50;43.90;;;;;;5053375;28;20097;-59
2021/11/11 08:39:42;;;;;;;10.80;1.90;;;20.50;43.90;;;;;;5082348;28;20095;-59
2021/11/11 08:42:10;;;;;;;5.00;1.73;;;20.50;43.40;;;;;;5064364;28;20111;-60
2021/11/11 08:44:44;;;;;;;10.68;1.70;;;20.50;42.70;;;;;;5064259;28;20096;-61
2021/11/11 08:47:20;;;;;;;8.32;1.90;;;20.50;42.70;;;;;;5064381;28;20091;-60
2021/11/11 08:49:52;;;;;;;4.47;2.05;;;20.50;42.10;;;;;;5047389;28;20113;-59
2021/11/11 08:52:20;;;;;;;16.13;3.70;;;20.60;42.10;;;;;;5063714;28;20131;-62
2021/11/11 08:54:47;;;;;;;7.00;4.30;;;20.60;42.10;;;;;;5037492;28;20510;-59
2021/11/11 08:57:13;;;;;;;12.00;4.40;;;20.60;42.50;;;;;;5079856;28;20120;-63
2021/11/11 08:59:40;;;;;;;7.28;3.45;;;20.60;42.20;;;;;;5063317;28;20123;-62
2021/11/11 09:02:10;;;;;;;11.38;3.50;;;20.50;42.50;;;;;;5048214;28;20080;-60
2021/11/11 09:04:37;;;;;;;8.38;2.20;;;20.60;42.00;;;;;;5062924;28;20089;-61
2021/11/11 09:07:04;;;;;;;7.85;2.08;;;20.50;42.30;;;;;;5063260;28;20118;-59
2021/11/11 09:09:30;;;;;;;9.23;1.60;;;20.60;42.70;;;;;;5082063;28;20137;-61
2021/11/11 09:11:57;;;;;;;11.30;1.60;;;20.50;42.90;;;;;;5061622;28;20069;-57
2021/11/11 09:14:23;;;;;;;9.82;2.05;;;20.50;42.50;;;;;;5062940;28;20084;-58
2021/11/11 09:16:50;;;;;;;8.65;1.85;;;20.50;42.70;;;;;;5044995;28;20077;-58
2021/11/11 09:19:16;;;;;;;8.25;2.22;;;20.60;42.80;;;;;;5082178;28;20065;-57
2021/11/11 09:21:43;;;;;;;5.57;1.70;;;20.60;43.30;;;;;;5046102;28;20202;-59
2021/11/11 09:24:10;;;;;;;9.18;2.65;;;20.60;43.00;;;;;;5081695;28;20069;-59
2021/11/11 09:26:38;;;;;;;5.32;1.90;;;20.60;43.00;;;;;;5034431;28;20084;-60
2021/11/11 09:29:06;;;;;;;6.75;1.92;;;20.60;42.50;;;;;;5045914;28;20700;-59
2021/11/11 09:31:34;;;;;;;5.00;1.60;;;20.70;42.80;;;;;;5064219;28;20077;-59
2021/11/11 09:34:00;;;;;;;5.38;1.55;;;20.60;42.30;;;;;;5046092;28;20155;-58
2021/11/11 09:36:27;;;;;;;5.25;1.50;;;20.60;42.40;;;;;;5046538;28;20073;-58
2021/11/11 09:38:53;;;;;;;3.17;1.10;;;20.60;42.40;;;;;;5080616;28;20073;-58
2021/11/11 09:41:21;;;;;;;3.85;1.10;;;20.60;42.50;;;;;;5034935;28;20084;-59
2021/11/11 09:43:48;;;;;;;3.97;0.80;;;20.60;42.20;;;;;;5062110;28;20111;-61
2021/11/11 09:46:17;;;;;;;5.45;1.15;;;20.50;42.20;;;;;;5079237;28;20552;-58
2021/11/11 09:48:44;;;;;;;3.17;1.45;;;20.50;41.60;;;;;;5081711;28;20073;-58
2021/11/11 09:51:17;;;;;;;7.97;2.13;;;20.50;40.90;;;;;;5061064;28;20135;-60
2021/11/11 09:53:52;;;;;;;9.77;2.42;;;20.50;40.40;;;;;;5063182;28;20430;-58
2021/11/11 09:59:04;;;;;;;8.88;2.13;;;20.60;39.70;;;;;;5064925;28;20067;-59
2021/11/11 10:01:30;;;;;;;6.97;1.35;;;20.60;39.80;;;;;;5047878;28;20080;-57
2021/11/11 10:03:57;;;;;;;7.18;2.03;;;20.50;39.70;;;;;;5034314;28;20111;-65
2021/11/11 10:06:25;;;;;;;7.53;2.28;;;20.50;39.50;;;;;;5045042;28;20134;-59
2021/11/11 10:09:00;;;;;;;11.65;2.60;;;20.50;39.80;;;;;;5037318;28;20081;-59
2021/11/11 10:11:26;;;;;;;5.72;1.80;;;20.40;40.20;;;;;;5042975;28;20769;-59
2021/11/11 10:14:16;;;;;;;7.90;1.85;;;20.40;40.40;;;;;;5061627;28;20076;-57
2021/11/11 10:16:45;;;;;;;8.90;1.45;;;20.40;40.60;;;;;;5084038;28;20070;-58
2021/11/11 10:19:12;;;;;;;5.47;1.00;;;20.30;40.40;;;;;;5059848;28;20438;-58
2021/11/11 10:22:06;;;;;;;4.70;1.30;;;20.30;40.00;;;;;;5080255;28;20068;-61
2021/11/11 10:24:47;;;;;;;6.45;1.55;;;20.30;39.90;;;;;;5060477;28;20076;-56
2021/11/11 10:30:21;;;;;;;6.97;2.22;;;20.30;39.30;;;;;;5079302;28;20087;-59
2021/11/11 10:33:09;;;;;;;4.35;2.00;;;20.30;39.20;;;;;;5060237;28;20134;-62
2021/11/11 10:35:43;;;;;;;8.27;2.30;;;20.30;39.00;;;;;;5029503;28;20126;-59
2021/11/11 10:38:15;;;;;;;6.43;2.20;;;20.40;39.20;;;;;;5063170;28;20077;-60
2021/11/11 10:40:49;;;;;;;9.68;2.22;;;20.40;38.70;;;;;;5062112;28;20093;-60
2021/11/11 10:43:21;;;;;;;6.72;2.10;;;20.40;38.50;;;;;;5062067;28;20076;-58
2021/11/11 10:45:50;;;;;;;9.80;2.50;;;20.40;38.20;;;;;;5080075;28;20538;-57
2021/11/11 10:48:19;;;;;;;7.68;2.60;;;20.50;38.10;;;;;;5062785;28;20132;-60
2021/11/11 10:50:49;;;;;;;8.85;2.47;;;20.50;38.10;;;;;;5045336;28;20494;-58
2021/11/11 10:53:20;;;;;;;8.82;2.28;;;20.50;38.10;;;;;;5043510;28;20083;-57
2021/11/11 10:55:53;;;;;;;6.25;1.80;;;20.50;38.00;;;;;;5062451;28;20592;-57
2021/11/11 10:58:24;;;;;;;4.53;2.03;;;20.50;38.00;;;;;;5044650;28;20720;-58
2021/11/11 11:01:00;;;;;;;3.83;1.30;;;20.60;37.90;;;;;;5045907;28;20140;-56
2021/11/11 11:03:33;;;;;;;5.07;1.10;;;20.60;37.70;;;;;;5061836;28;20108;-58
2021/11/11 11:06:11;;;;;;;3.78;1.35;;;20.60;37.80;;;;;;5060859;28;20090;-58
2021/11/11 11:08:39;;;;;;;4.32;0.80;;;20.60;37.90;;;;;;5060639;28;20565;-61
2021/11/11 11:11:15;;;;;;;2.22;1.10;;;20.60;38.10;;;;;;5061865;28;20073;-58
2021/11/11 11:13:46;;;;;;;3.22;1.42;;;20.60;38.30;;;;;;5061338;28;20064;-58
2021/11/11 11:16:17;;;;;;;7.28;1.08;;;20.60;39.30;;;;;;5061956;28;20080;-62
2021/11/11 11:18:45;;;;;;;7.68;1.23;;;20.50;39.70;;;;;;5042721;28;20152;-60
2021/11/11 11:21:12;;;;;;;3.53;1.20;;;20.40;40.20;;;;;;5061098;28;20163;-57
2021/11/11 11:23:42;;;;;;;;;;;20.40;40.60;;;;;;5060995;28;20072;-61
2021/11/11 11:26:28;;;;;;;3.80;1.20;;;20.30;40.50;;;;;;5082668;28;20023;-59
2021/11/11 11:32:09;;;;;;;4.22;1.20;;;20.10;42.20;;;;;;5081737;28;20076;-62
2021/11/11 11:34:43;;;;;;;3.67;1.27;;;20.00;42.00;;;;;;5064571;28;20084;-61
2021/11/11 11:37:13;;;;;;;2.55;1.45;;;20.00;42.90;;;;;;5084316;28;20081;-63
2021/11/11 11:39:44;;;;;;;4.47;1.58;;;19.90;42.80;;;;;;5065437;28;20549;-64
2021/11/11 11:42:14;;;;;;;3.95;1.65;;;19.90;42.80;;;;;;5061383;28;20096;-61
2021/11/11 11:44:52;;;;;;;6.70;1.70;;;19.80;42.50;;;;;;5063535;28;20796;-62
2021/11/11 11:47:36;;;;;;;10.43;1.63;;;19.80;42.40;;;;;;5087961;28;20072;-60
2021/11/11 11:50:21;;;;;;;4.47;1.33;;;19.80;42.90;;;;;;5050018;28;20554;-60
2021/11/11 11:52:56;;;;;;;7.30;1.30;;;19.80;42.10;;;;;;5063281;28;20433;-60
2021/11/11 12:29:49;;;;;;;4.25;0.70;;;21.30;37.70;;;;;;5083050;28;20447;-64
2021/11/11 12:40:36;;;;;;;5.95;0.90;;;21.30;37.20;;;;;;5057639;28;20154;-62
2021/11/11 12:43:19;;;;;;;2.60;0.80;;;21.20;37.30;;;;;;5062582;28;20080;-61
2021/11/11 12:45:45;;;;;;;4.35;0.90;;;21.20;37.20;;;;;;5065130;28;20163;-60
2021/11/11 12:48:14;;;;;;;4.60;0.90;;;21.20;37.70;;;;;;5047917;28;20162;-62
2021/11/11 12:50:48;;;;;;;3.97;0.80;;;21.20;37.30;;;;;;5063511;28;20103;-62
2021/11/11 12:53:16;;;;;;;10.57;1.13;;;21.20;37.50;;;;;;5064782;28;20095;-59
2021/11/11 12:56:07;;;;;;;3.03;0.90;;;21.10;37.70;;;;;;5063153;28;20105;-61
2021/11/11 12:58:38;;;;;;;3.08;0.80;;;21.10;38.00;;;;;;5051512;28;20423;-60
2021/11/11 13:01:20;;;;;;;5.05;0.90;;;21.00;38.60;;;;;;5060254;28;20113;-54
2021/11/11 13:03:49;;;;;;;4.00;0.90;;;20.90;38.90;;;;;;5060073;28;20073;-61
2021/11/11 13:06:44;;;;;;;10.40;1.40;;;20.80;39.50;;;;;;5042363;28;20188;-62
2021/11/11 13:09:17;;;;;;;7.85;0.90;;;20.70;39.90;;;;;;5062081;28;20073;-61
2021/11/11 13:11:51;;;;;;;4.93;1.02;;;20.60;40.50;;;;;;5057939;28;20438;-61
2021/11/11 13:14:18;;;;;;;5.20;1.00;;;20.50;41.00;;;;;;5044631;28;20217;-61
2021/11/11 13:17:04;;;;;;;5.80;1.00;;;20.40;41.90;;;;;;5060624;28;20535;-60
2021/11/11 13:19:52;;;;;;;7.25;1.08;;;20.30;42.50;;;;;;5052189;28;20566;-60
2021/11/11 13:22:41;;;;;;;2.28;0.90;;;20.20;42.60;;;;;;5059647;28;20081;-63
2021/11/11 16:20:57;;;;;;;12.23;1.48;;;26.10;34.70;;;;;;5010715;28;20101;-57
2021/11/11 16:23:46;;;;;;;10.23;1.55;;;26.80;33.50;;;;;;5011996;28;20119;-62
2021/11/11 16:26:15;;;;;;;13.57;1.30;;;27.50;32.50;;;;;;5081087;28;20419;-59
2021/11/11 16:28:46;;;;;;;10.77;1.23;;;28.20;31.60;;;;;;5092351;28;20068;-60
2021/11/11 16:31:14;;;;;;;10.73;1.75;;;29.00;31.90;;;;;;5042243;28;20063;-60
2021/11/11 16:33:43;;;;;;;9.18;1.67;;;29.80;30.60;;;;;;5057159;28;20027;-57
2021/11/11 16:36:09;;;;;;;12.82;1.13;;;30.10;30.00;;;;;;5092542;28;20073;-60
2021/11/11 16:38:37;;;;;;;11.00;1.55;;;30.20;29.80;;;;;;5057610;28;20027;-59
2021/11/11 16:41:05;;;;;;;8.07;1.10;;;30.40;29.80;;;;;;5051220;28;20073;-60
2021/11/11 16:43:32;;;;;;;13.30;1.15;;;30.20;29.80;;;;;;5037915;28;20080;-62
2021/11/11 16:45:59;;;;;;;6.43;1.15;;;30.50;29.70;;;;;;5072830;28;20697;-62
2021/11/11 16:48:25;;;;;;;8.90;1.00;;;30.60;29.50;;;;;;5073433;28;20437;-60
2021/11/11 16:50:52;;;;;;;11.55;1.20;;;30.70;29.50;;;;;;5073575;28;20085;-60
2021/11/11 16:53:19;;;;;;;12.27;1.33;;;31.10;29.40;;;;;;5041472;28;20149;-60